Time,TemperatureF,DewpointF,PressureIn,WindDirection,WindDirectionDegrees,WindSpeedMPH,WindSpeedGustMPH,Humidity,HourlyPrecipIn,Conditions,Clouds,dailyrainin,SoftwareType,DateUTC
2013-02-20 00:02:00,33.4,32.9,29.55,ESE,116,0.0,0.0,98,0.00,,,0.00,LWC V2.10 B1813,2013-02-20 05:02:00,
2013-02-20 00:07:00,33.3,32.8,29.55,ESE,116,0.0,1.0,98,0.00,,,0.00,LWC V2.10 B1813,2013-02-20 05:07:00,
2013-02-20 00:12:00,33.3,32.8,29.55,ESE,116,0.0,0.0,98,0.00,,,0.00,LWC V2.10 B1813,2013-02-20 05:12:00,
2013-02-20 00:17:00,33.3,32.8,29.55,ESE,116,0.0,0.0,98,0.00,,,0.00,LWC V2.10 B1813,2013-02-20 05:17:00,
2013-02-20 00:22:00,33.1,32.6,29.55,ESE,116,0.0,0.0,98,0.00,,,0.00,LWC V2.10 B1813,2013-02-20 05:22:00,
2013-02-20 00:27:00,33.2,32.7,29.55,ESE,116,0.0,1.0,98,0.00,,,0.00,LWC V2.10 B1813,2013-02-20 05:27:00,
2013-02-20 00:32:00,33.2,32.7,29.55,ESE,116,0.0,0.0,98,0.00,,,0.00,LWC V2.10 B1813,2013-02-20 05:32:00,
2013-02-20 00:37:00,33.1,32.6,29.55,ESE,116,0.0,1.0,98,0.00,,,0.00,LWC V2.10 B1813,2013-02-20 05:37:00,
2013-02-20 00:42:00,33.1,32.6,29.54,ESE,116,0.0,0.0,98,0.00,,,0.00,LWC V2.10 B1813,2013-02-20 05:42:00,
2013-02-20 00:47:00,33.0,32.5,29.54,ESE,116,0.0,0.0,98,0.00,,,0.00,LWC V2.10 B1813,2013-02-20 05:47:00,
2013-02-20 00:52:00,33.0,32.5,29.54,ESE,116,0.0,0.0,98,0.00,,,0.00,LWC V2.10 B1813,2013-02-20 05:52:00,
2013-02-20 00:57:00,33.1,32.6,29.54,ESE,116,0.0,0.0,98,0.00,,,0.01,LWC V2.10 B1813,2013-02-20 05:57:00,
2013-02-20 01:02:00,33.1,32.6,29.54,ESE,116,0.0,1.0,98,0.00,,,0.01,LWC V2.10 B1813,2013-02-20 06:02:00,
2013-02-20 01:07:00,33.2,32.7,29.54,NNW,334,0.0,1.0,98,0.00,,,0.01,LWC V2.10 B1813,2013-02-20 06:07:00,
2013-02-20 01:12:00,33.1,32.6,29.53,West,275,1.0,1.0,98,0.00,,,0.01,LWC V2.10 B1813,2013-02-20 06:12:00,
2013-02-20 01:17:00,33.4,32.9,29.54,WNW,288,0.0,2.0,98,0.00,,,0.02,LWC V2.10 B1813,2013-02-20 06:17:00,
2013-02-20 01:22:00,33.4,32.9,29.54,WNW,290,0.0,1.0,98,0.00,,,0.02,LWC V2.10 B1813,2013-02-20 06:22:00,
2013-02-20 01:27:00,33.5,33.0,29.54,WNW,290,0.0,1.0,98,0.00,,,0.02,LWC V2.10 B1813,2013-02-20 06:27:00,
2013-02-20 01:32:00,33.5,33.0,29.54,WNW,283,0.0,3.0,98,0.00,,,0.02,LWC V2.10 B1813,2013-02-20 06:32:00,
2013-02-20 01:37:00,34.2,33.9,29.54,NE,35,4.0,5.0,99,0.00,,,0.03,LWC V2.10 B1813,2013-02-20 06:37:00,
2013-02-20 01:42:00,34.4,34.1,29.55,NW,313,14.0,14.0,99,0.00,,,0.03,LWC V2.10 B1813,2013-02-20 06:42:00,
2013-02-20 01:47:00,34.3,33.8,29.55,NE,47,7.0,10.0,98,0.00,,,0.03,LWC V2.10 B1813,2013-02-20 06:47:00,
2013-02-20 01:52:00,34.3,33.5,29.55,NW,310,7.0,9.0,97,0.00,,,0.03,LWC V2.10 B1813,2013-02-20 06:52:00,
2013-02-20 01:57:00,34.2,32.9,29.54,NNW,348,2.0,9.0,95,0.00,,,0.03,LWC V2.10 B1813,2013-02-20 06:57:00,
2013-02-20 02:02:00,34.2,32.4,29.54,NNW,334,4.0,7.0,93,0.00,,,0.03,LWC V2.10 B1813,2013-02-20 07:02:00,
2013-02-20 02:07:00,34.2,32.1,29.54,NW,325,1.0,9.0,92,0.00,,,0.03,LWC V2.10 B1813,2013-02-20 07:07:00,
2013-02-20 02:12:00,34.1,32.0,29.54,NW,305,2.0,6.0,92,0.00,,,0.03,LWC V2.10 B1813,2013-02-20 07:12:00,
2013-02-20 02:17:00,34.2,32.1,29.54,West,276,0.0,0.0,92,0.00,,,0.03,LWC V2.10 B1813,2013-02-20 07:17:00,
2013-02-20 02:22:00,34.1,31.8,29.55,West,272,0.0,4.0,91,0.00,,,0.03,LWC V2.10 B1813,2013-02-20 07:22:00,
2013-02-20 02:27:00,34.0,31.7,29.55,West,272,1.0,9.0,91,0.00,,,0.03,LWC V2.10 B1813,2013-02-20 07:27:00,
2013-02-20 02:32:00,34.0,31.7,29.55,WNW,297,0.0,1.0,91,0.00,,,0.03,LWC V2.10 B1813,2013-02-20 07:32:00,
2013-02-20 02:37:00,33.9,31.8,29.56,West,280,3.0,4.0,92,0.00,,,0.03,LWC V2.10 B1813,2013-02-20 07:37:00,
2013-02-20 02:42:00,33.7,31.6,29.56,NNE,28,1.0,2.0,92,0.00,,,0.03,LWC V2.10 B1813,2013-02-20 07:42:00,
2013-02-20 02:47:00,33.5,31.7,29.56,WSW,249,0.0,1.0,93,0.00,,,0.03,LWC V2.10 B1813,2013-02-20 07:47:00,
2013-02-20 02:52:00,33.5,31.4,29.55,NW,304,0.0,2.0,92,0.00,,,0.03,LWC V2.10 B1813,2013-02-20 07:52:00,
2013-02-20 02:57:00,33.5,31.4,29.55,East,81,0.0,9.0,92,0.00,,,0.03,LWC V2.10 B1813,2013-02-20 07:57:00,
2013-02-20 03:07:00,33.5,30.9,29.56,ESE,109,2.0,6.0,90,0.00,,,0.03,LWC V2.10 B1813,2013-02-20 08:07:00,
2013-02-20 03:12:00,33.5,30.1,29.56,WNW,294,6.0,13.0,87,0.00,,,0.03,LWC V2.10 B1813,2013-02-20 08:12:00,
2013-02-20 03:17:00,33.5,30.3,29.56,North,354,4.0,9.0,88,0.00,,,0.03,LWC V2.10 B1813,2013-02-20 08:17:00,
2013-02-20 03:22:00,33.4,30.2,29.56,WSW,239,1.0,2.0,88,0.00,,,0.03,LWC V2.10 B1813,2013-02-20 08:22:00,
2013-02-20 03:27:00,33.2,30.0,29.56,NNW,332,4.0,7.0,88,0.00,,,0.03,LWC V2.10 B1813,2013-02-20 08:27:00,
2013-02-20 03:32:00,33.2,29.8,29.57,ENE,78,1.0,1.0,87,0.00,,,0.03,LWC V2.10 B1813,2013-02-20 08:32:00,
2013-02-20 03:37:00,32.9,29.7,29.57,SE,144,0.0,1.0,88,0.00,,,0.03,LWC V2.10 B1813,2013-02-20 08:37:00,
2013-02-20 03:42:00,32.7,29.3,29.57,NNW,327,4.0,7.0,87,0.00,,,0.03,LWC V2.10 B1813,2013-02-20 08:42:00,
2013-02-20 03:47:00,32.6,28.9,29.57,NW,304,3.0,7.0,86,0.00,,,0.03,LWC V2.10 B1813,2013-02-20 08:47:00,
2013-02-20 03:52:00,32.5,28.5,29.57,NW,325,2.0,2.0,85,0.00,,,0.03,LWC V2.10 B1813,2013-02-20 08:52:00,
2013-02-20 03:57:00,32.4,28.7,29.58,West,279,1.0,3.0,86,0.00,,,0.03,LWC V2.10 B1813,2013-02-20 08:57:00,
2013-02-20 04:02:00,32.3,27.7,29.58,West,273,9.0,14.0,83,0.00,,,0.03,LWC V2.10 B1813,2013-02-20 09:02:00,
2013-02-20 04:07:00,32.2,27.0,29.58,NNW,339,9.0,16.0,81,0.00,,,0.03,LWC V2.10 B1813,2013-02-20 09:07:00,
2013-02-20 04:12:00,32.0,27.1,29.58,WNW,282,2.0,5.0,82,0.00,,,0.03,LWC V2.10 B1813,2013-02-20 09:12:00,
2013-02-20 04:17:00,31.8,26.9,29.59,NNW,346,3.0,4.0,82,0.00,,,0.03,LWC V2.10 B1813,2013-02-20 09:17:00,
2013-02-20 04:22:00,31.7,26.2,29.58,NW,325,3.0,9.0,80,0.00,,,0.03,LWC V2.10 B1813,2013-02-20 09:22:00,
2013-02-20 04:27:00,31.5,26.4,29.59,North,353,1.0,6.0,81,0.00,,,0.03,LWC V2.10 B1813,2013-02-20 09:27:00,
2013-02-20 04:32:00,31.3,26.2,29.59,East,79,2.0,2.0,81,0.00,,,0.03,LWC V2.10 B1813,2013-02-20 09:32:00,
2013-02-20 04:37:00,31.2,26.6,29.59,East,96,0.0,1.0,83,0.00,,,0.03,LWC V2.10 B1813,2013-02-20 09:37:00,
2013-02-20 04:42:00,31.0,27.0,29.59,ESE,119,0.0,1.0,85,0.00,,,0.03,LWC V2.10 B1813,2013-02-20 09:42:00,
2013-02-20 04:47:00,30.8,25.4,29.59,South,177,3.0,7.0,80,0.00,,,0.03,LWC V2.10 B1813,2013-02-20 09:47:00,
2013-02-20 04:52:00,30.9,25.5,29.58,SSW,213,2.0,4.0,80,0.00,,,0.03,LWC V2.10 B1813,2013-02-20 09:52:00,
2013-02-20 04:57:00,30.9,25.5,29.59,WSW,253,1.0,5.0,80,0.00,,,0.03,LWC V2.10 B1813,2013-02-20 09:57:00,
2013-02-20 05:02:00,30.7,24.0,29.58,North,359,6.0,11.0,76,0.00,,,0.03,LWC V2.10 B1813,2013-02-20 10:02:00,
2013-02-20 05:07:00,30.6,24.3,29.59,WNW,284,1.0,4.0,77,0.00,,,0.03,LWC V2.10 B1813,2013-02-20 10:07:00,
2013-02-20 05:12:00,30.5,23.9,29.59,WNW,284,1.0,8.0,76,0.00,,,0.03,LWC V2.10 B1813,2013-02-20 10:12:00,
2013-02-20 05:17:00,30.4,23.8,29.59,NW,313,3.0,4.0,76,0.00,,,0.03,LWC V2.10 B1813,2013-02-20 10:17:00,
2013-02-20 05:22:00,30.2,23.2,29.59,NW,305,0.0,3.0,75,0.00,,,0.03,LWC V2.10 B1813,2013-02-20 10:22:00,
2013-02-20 05:27:00,30.1,23.2,29.59,North,350,2.0,8.0,75,0.00,,,0.03,LWC V2.10 B1813,2013-02-20 10:27:00,
2013-02-20 05:32:00,30.0,23.1,29.59,West,270,4.0,16.0,75,0.00,,,0.03,LWC V2.10 B1813,2013-02-20 10:32:00,
2013-02-20 05:37:00,29.9,23.3,29.59,NW,310,4.0,7.0,76,0.00,,,0.03,LWC V2.10 B1813,2013-02-20 10:37:00,
2013-02-20 05:42:00,29.8,22.9,29.59,NNW,335,6.0,10.0,75,0.00,,,0.03,LWC V2.10 B1813,2013-02-20 10:42:00,
2013-02-20 05:47:00,29.6,23.3,29.60,WNW,296,0.0,8.0,77,0.00,,,0.03,LWC V2.10 B1813,2013-02-20 10:47:00,
2013-02-20 05:52:00,29.5,22.3,29.60,NW,304,6.0,12.0,74,0.00,,,0.03,LWC V2.10 B1813,2013-02-20 10:52:00,
2013-02-20 05:57:00,29.3,22.4,29.59,WNW,303,3.0,5.0,75,0.00,,,0.03,LWC V2.10 B1813,2013-02-20 10:57:00,
2013-02-20 06:02:00,29.1,22.2,29.59,NE,35,4.0,10.0,75,0.00,,,0.03,LWC V2.10 B1813,2013-02-20 11:02:00,
2013-02-20 06:07:00,29.0,22.4,29.59,North,356,0.0,2.0,76,0.00,,,0.03,LWC V2.10 B1813,2013-02-20 11:07:00,
2013-02-20 06:12:00,28.8,21.9,29.59,NNW,343,5.0,12.0,75,0.00,,,0.03,LWC V2.10 B1813,2013-02-20 11:12:00,
2013-02-20 06:17:00,28.8,21.6,29.59,NW,313,6.0,15.0,74,0.00,,,0.03,LWC V2.10 B1813,2013-02-20 11:17:00,
2013-02-20 06:22:00,28.8,20.9,29.59,NNW,347,3.0,20.0,72,0.00,,,0.03,LWC V2.10 B1813,2013-02-20 11:22:00,
2013-02-20 06:27:00,28.8,21.3,29.60,North,359,2.0,13.0,73,0.00,,,0.03,LWC V2.10 B1813,2013-02-20 11:27:00,
2013-02-20 06:32:00,28.7,21.2,29.60,West,266,2.0,15.0,73,0.00,,,0.03,LWC V2.10 B1813,2013-02-20 11:32:00,
2013-02-20 06:37:00,28.6,21.4,29.60,WNW,300,5.0,7.0,74,0.00,,,0.03,LWC V2.10 B1813,2013-02-20 11:37:00,
2013-02-20 06:42:00,28.5,21.3,29.60,West,279,3.0,9.0,74,0.00,,,0.03,LWC V2.10 B1813,2013-02-20 11:42:00,
2013-02-20 06:47:00,28.3,20.8,29.60,NE,41,5.0,9.0,73,0.00,,,0.03,LWC V2.10 B1813,2013-02-20 11:47:00,
2013-02-20 06:52:00,28.2,21.0,29.61,WNW,287,2.0,3.0,74,0.00,,,0.03,LWC V2.10 B1813,2013-02-20 11:52:00,
2013-02-20 06:57:00,28.0,20.8,29.61,West,272,2.0,6.0,74,0.00,,,0.03,LWC V2.10 B1813,2013-02-20 11:57:00,
2013-02-20 07:02:00,27.9,21.0,29.61,NE,41,3.0,8.0,75,0.00,,,0.03,LWC V2.10 B1813,2013-02-20 12:02:00,
2013-02-20 07:07:00,27.8,20.9,29.61,NW,305,3.0,9.0,75,0.00,,,0.03,LWC V2.10 B1813,2013-02-20 12:07:00,
2013-02-20 07:12:00,27.8,20.9,29.61,WSW,256,8.0,12.0,75,0.00,,,0.03,LWC V2.10 B1813,2013-02-20 12:12:00,
2013-02-20 07:17:00,28.0,20.8,29.61,West,263,2.0,6.0,74,0.00,,,0.03,LWC V2.10 B1813,2013-02-20 12:17:00,
2013-02-20 07:22:00,28.1,20.6,29.61,NNW,334,3.0,9.0,73,0.00,,,0.03,LWC V2.10 B1813,2013-02-20 12:22:00,
2013-02-20 07:27:00,28.3,21.1,29.61,North,353,2.0,6.0,74,0.00,,,0.03,LWC V2.10 B1813,2013-02-20 12:27:00,
2013-02-20 07:32:00,-999.0,-99.9,-100.00,North,-999,-999.0,7.0,-999,-99.99,,,0.03,LWC V2.10 B1813,2013-02-20 12:32:00,
2013-02-20 07:37:00,28.5,20.6,29.61,NNW,334,2.0,12.0,72,0.00,,,0.03,LWC V2.10 B1813,2013-02-20 12:37:00,
2013-02-20 07:42:00,28.8,20.9,29.61,WNW,286,6.0,8.0,72,0.00,,,0.03,LWC V2.10 B1813,2013-02-20 12:42:00,
2013-02-20 07:47:00,29.0,20.8,29.62,WNW,286,11.0,11.0,71,0.00,,,0.03,LWC V2.10 B1813,2013-02-20 12:47:00,
2013-02-20 07:52:00,28.8,19.9,29.62,West,280,6.0,13.0,69,0.00,,,0.03,LWC V2.10 B1813,2013-02-20 12:52:00,
2013-02-20 07:57:00,28.8,20.6,29.61,NNE,23,4.0,10.0,71,0.00,,,0.03,LWC V2.10 B1813,2013-02-20 12:57:00,
2013-02-20 08:02:00,28.8,20.3,29.62,North,351,4.0,8.0,70,0.00,,,0.03,LWC V2.10 B1813,2013-02-20 13:02:00,
2013-02-20 08:07:00,28.8,20.3,29.62,NNW,348,4.0,9.0,70,0.00,,,0.03,LWC V2.10 B1813,2013-02-20 13:07:00,
2013-02-20 08:12:00,28.9,20.4,29.62,WNW,303,3.0,13.0,70,0.00,,,0.03,LWC V2.10 B1813,2013-02-20 13:12:00,
2013-02-20 08:17:00,29.0,20.1,29.62,NNW,343,8.0,10.0,69,0.00,,,0.03,LWC V2.10 B1813,2013-02-20 13:17:00,
2013-02-20 08:22:00,29.2,20.3,29.62,WNW,289,9.0,13.0,69,0.00,,,0.03,LWC V2.10 B1813,2013-02-20 13:22:00,
2013-02-20 08:27:00,29.5,20.6,29.62,NNE,23,6.0,10.0,69,0.00,,,0.03,LWC V2.10 B1813,2013-02-20 13:27:00,
2013-02-20 08:32:00,29.5,19.9,29.62,North,354,2.0,18.0,67,0.00,,,0.03,LWC V2.10 B1813,2013-02-20 13:32:00,
2013-02-20 08:37:00,29.2,19.6,29.62,West,270,4.0,14.0,67,0.00,,,0.03,LWC V2.10 B1813,2013-02-20 13:37:00,
2013-02-20 08:42:00,29.1,20.2,29.63,West,275,11.0,11.0,69,0.00,,,0.03,LWC V2.10 B1813,2013-02-20 13:42:00,
2013-02-20 08:47:00,28.9,19.7,29.63,NW,320,2.0,13.0,68,0.00,,,0.03,LWC V2.10 B1813,2013-02-20 13:47:00,
2013-02-20 08:52:00,28.8,19.6,29.63,West,276,3.0,10.0,68,0.00,,,0.03,LWC V2.10 B1813,2013-02-20 13:52:00,
2013-02-20 08:57:00,28.8,19.6,29.63,WNW,282,8.0,9.0,68,0.00,,,0.03,LWC V2.10 B1813,2013-02-20 13:57:00,
2013-02-20 09:02:00,28.7,19.2,29.63,NNW,329,14.0,14.0,67,0.00,,,0.03,LWC V2.10 B1813,2013-02-20 14:02:00,
2013-02-20 09:07:00,28.7,19.2,29.62,North,356,11.0,15.0,67,0.00,,,0.03,LWC V2.10 B1813,2013-02-20 14:07:00,
2013-02-20 09:12:00,29.0,19.4,29.62,NW,325,11.0,15.0,67,0.00,,,0.03,LWC V2.10 B1813,2013-02-20 14:12:00,
2013-02-20 09:17:00,29.2,18.9,29.62,NNW,342,8.0,13.0,65,0.00,,,0.03,LWC V2.10 B1813,2013-02-20 14:17:00,
2013-02-20 09:22:00,29.1,18.8,29.62,NW,318,7.0,25.0,65,0.00,,,0.03,LWC V2.10 B1813,2013-02-20 14:22:00,
2013-02-20 09:27:00,29.1,18.8,29.62,NNW,331,6.0,9.0,65,0.00,,,0.03,LWC V2.10 B1813,2013-02-20 14:27:00,
2013-02-20 09:32:00,29.4,19.1,29.62,WNW,288,5.0,15.0,65,0.00,,,0.03,LWC V2.10 B1813,2013-02-20 14:32:00,
2013-02-20 09:37:00,29.6,18.6,29.62,NE,54,5.0,13.0,63,0.00,,,0.03,LWC V2.10 B1813,2013-02-20 14:37:00,
2013-02-20 09:42:00,29.7,17.9,29.62,NNW,345,5.0,19.0,61,0.00,,,0.03,LWC V2.10 B1813,2013-02-20 14:42:00,
2013-02-20 09:47:00,29.9,18.5,29.63,North,349,6.0,12.0,62,0.00,,,0.03,LWC V2.10 B1813,2013-02-20 14:47:00,
2013-02-20 09:52:00,30.0,18.2,29.62,NNW,348,4.0,7.0,61,0.00,,,0.03,LWC V2.10 B1813,2013-02-20 14:52:00,
2013-02-20 09:57:00,30.0,17.8,29.62,West,266,6.0,10.0,60,0.00,,,0.03,LWC V2.10 B1813,2013-02-20 14:57:00,
2013-02-20 10:02:00,30.2,18.0,29.63,West,279,2.0,9.0,60,0.00,,,0.03,LWC V2.10 B1813,2013-02-20 15:02:00,
2013-02-20 10:07:00,30.6,18.4,29.63,WNW,293,3.0,10.0,60,0.00,,,0.03,LWC V2.10 B1813,2013-02-20 15:07:00,
2013-02-20 10:12:00,30.4,17.4,29.63,NNW,327,8.0,15.0,58,0.00,,,0.03,LWC V2.10 B1813,2013-02-20 15:12:00,
2013-02-20 10:17:00,30.4,18.2,29.62,NW,307,4.0,8.0,60,0.00,,,0.03,LWC V2.10 B1813,2013-02-20 15:17:00,
2013-02-20 10:22:00,30.6,17.6,29.62,West,266,13.0,20.0,58,0.00,,,0.03,LWC V2.10 B1813,2013-02-20 15:22:00,
2013-02-20 10:27:00,30.3,17.3,29.63,North,352,13.0,21.0,58,0.00,,,0.03,LWC V2.10 B1813,2013-02-20 15:27:00,
2013-02-20 10:32:00,30.0,17.4,29.63,NW,325,8.0,11.0,59,0.00,,,0.03,LWC V2.10 B1813,2013-02-20 15:32:00,
2013-02-20 10:37:00,30.0,17.4,29.63,NNW,343,10.0,11.0,59,0.00,,,0.03,LWC V2.10 B1813,2013-02-20 15:37:00,
2013-02-20 10:42:00,29.7,17.5,29.63,NNE,18,2.0,6.0,60,0.00,,,0.03,LWC V2.10 B1813,2013-02-20 15:42:00,
2013-02-20 10:47:00,29.7,17.1,29.64,NNW,339,6.0,6.0,59,0.00,,,0.03,LWC V2.10 B1813,2013-02-20 15:47:00,
2013-02-20 10:52:00,29.6,17.1,29.64,NW,313,6.0,12.0,59,0.00,,,0.03,LWC V2.10 B1813,2013-02-20 15:52:00,
2013-02-20 10:57:00,29.7,17.5,29.64,NW,320,5.0,12.0,60,0.00,,,0.03,LWC V2.10 B1813,2013-02-20 15:57:00,
2013-02-20 11:02:00,29.6,17.1,29.64,WSW,256,12.0,15.0,59,0.00,,,0.03,LWC V2.10 B1813,2013-02-20 16:02:00,
2013-02-20 11:07:00,29.5,17.0,29.64,NE,36,6.0,13.0,59,0.00,,,0.03,LWC V2.10 B1813,2013-02-20 16:07:00,
2013-02-20 11:12:00,29.4,16.9,29.64,North,353,4.0,10.0,59,0.00,,,0.03,LWC V2.10 B1813,2013-02-20 16:12:00,
2013-02-20 11:17:00,29.5,17.0,29.64,NW,308,4.0,16.0,59,0.00,,,0.03,LWC V2.10 B1813,2013-02-20 16:17:00,
2013-02-20 11:22:00,29.6,16.7,29.63,West,280,7.0,18.0,58,0.00,,,0.03,LWC V2.10 B1813,2013-02-20 16:22:00,
2013-02-20 11:27:00,29.7,16.4,29.63,WSW,246,8.0,21.0,57,0.00,,,0.03,LWC V2.10 B1813,2013-02-20 16:27:00,
2013-02-20 11:32:00,30.0,17.0,29.63,NNW,347,9.0,13.0,58,0.00,,,0.03,LWC V2.10 B1813,2013-02-20 16:32:00,
2013-02-20 11:37:00,30.5,16.7,29.63,West,276,2.0,9.0,56,0.00,,,0.03,LWC V2.10 B1813,2013-02-20 16:37:00,
2013-02-20 11:42:00,30.7,16.0,29.63,North,353,8.0,12.0,54,0.00,,,0.03,LWC V2.10 B1813,2013-02-20 16:42:00,
2013-02-20 11:47:00,30.4,15.8,29.64,NNW,339,5.0,18.0,54,0.00,,,0.03,LWC V2.10 B1813,2013-02-20 16:47:00,
2013-02-20 11:52:00,30.2,15.6,29.63,WNW,282,11.0,11.0,54,0.00,,,0.03,LWC V2.10 B1813,2013-02-20 16:52:00,
2013-02-20 11:57:00,30.7,16.0,29.63,WNW,296,5.0,14.0,54,0.00,,,0.03,LWC V2.10 B1813,2013-02-20 16:57:00,
2013-02-20 12:02:00,30.6,15.5,29.63,NW,304,13.0,15.0,53,0.00,,,0.03,LWC V2.10 B1813,2013-02-20 17:02:00,
2013-02-20 12:07:00,30.3,15.2,29.63,WNW,294,8.0,16.0,53,0.00,,,0.03,LWC V2.10 B1813,2013-02-20 17:07:00,
2013-02-20 12:12:00,29.9,15.3,29.63,WNW,291,2.0,12.0,54,0.00,,,0.03,LWC V2.10 B1813,2013-02-20 17:12:00,
2013-02-20 12:17:00,29.7,14.7,29.63,NNE,20,5.0,18.0,53,0.00,,,0.03,LWC V2.10 B1813,2013-02-20 17:17:00,
2013-02-20 12:22:00,29.6,15.4,29.63,NW,322,2.0,12.0,55,0.00,,,0.03,LWC V2.10 B1813,2013-02-20 17:22:00,
2013-02-20 12:27:00,29.7,15.1,29.62,NW,304,5.0,8.0,54,0.00,,,0.03,LWC V2.10 B1813,2013-02-20 17:27:00,
2013-02-20 12:32:00,29.6,15.9,29.63,NW,315,14.0,18.0,56,0.00,,,0.03,LWC V2.10 B1813,2013-02-20 17:32:00,
2013-02-20 12:37:00,29.4,15.3,29.63,NW,320,5.0,8.0,55,0.00,,,0.03,LWC V2.10 B1813,2013-02-20 17:37:00,
2013-02-20 12:42:00,29.3,15.2,29.62,NW,308,6.0,6.0,55,0.00,,,0.03,LWC V2.10 B1813,2013-02-20 17:42:00,
2013-02-20 12:47:00,29.5,15.3,29.62,WSW,249,4.0,15.0,55,0.00,,,0.03,LWC V2.10 B1813,2013-02-20 17:47:00,
2013-02-20 12:52:00,29.7,15.1,29.62,NW,325,10.0,15.0,54,0.00,,,0.03,LWC V2.10 B1813,2013-02-20 17:52:00,
2013-02-20 12:57:00,30.1,15.1,29.62,WNW,290,12.0,12.0,53,0.00,,,0.03,LWC V2.10 B1813,2013-02-20 17:57:00,
2013-02-20 13:02:00,30.6,15.1,29.62,SW,230,6.0,10.0,52,0.00,,,0.03,LWC V2.10 B1813,2013-02-20 18:02:00,
2013-02-20 13:07:00,30.6,14.6,29.62,North,2,12.0,17.0,51,0.00,,,0.03,LWC V2.10 B1813,2013-02-20 18:07:00,
2013-02-20 13:12:00,30.5,14.1,29.62,NW,317,9.0,14.0,50,0.00,,,0.03,LWC V2.10 B1813,2013-02-20 18:12:00,
2013-02-20 13:17:00,30.8,14.8,29.62,WSW,252,6.0,10.0,51,0.00,,,0.03,LWC V2.10 B1813,2013-02-20 18:17:00,
2013-02-20 13:22:00,30.5,14.1,29.62,WNW,289,15.0,17.0,50,0.00,,,0.03,LWC V2.10 B1813,2013-02-20 18:22:00,
2013-02-20 13:27:00,30.4,14.0,29.61,West,262,7.0,8.0,50,0.00,,,0.03,LWC V2.10 B1813,2013-02-20 18:27:00,
2013-02-20 13:32:00,30.5,14.1,29.61,NW,306,3.0,8.0,50,0.00,,,0.03,LWC V2.10 B1813,2013-02-20 18:32:00,
2013-02-20 13:37:00,30.3,14.4,29.61,NW,324,7.0,11.0,51,0.00,,,0.03,LWC V2.10 B1813,2013-02-20 18:37:00,
2013-02-20 13:42:00,30.0,14.1,29.61,WSW,256,11.0,14.0,51,0.00,,,0.03,LWC V2.10 B1813,2013-02-20 18:42:00,
2013-02-20 13:47:00,30.0,14.5,29.62,WNW,282,6.0,16.0,52,0.00,,,0.03,LWC V2.10 B1813,2013-02-20 18:47:00,
2013-02-20 13:52:00,29.7,13.4,29.62,West,272,7.0,28.0,50,0.00,,,0.03,LWC V2.10 B1813,2013-02-20 18:52:00,
2013-02-20 13:57:00,30.1,15.1,29.62,ENE,62,6.0,9.0,53,0.00,,,0.03,LWC V2.10 B1813,2013-02-20 18:57:00,
2013-02-20 14:02:00,30.1,14.6,29.61,NE,46,3.0,13.0,52,0.00,,,0.03,LWC V2.10 B1813,2013-02-20 19:02:00,
2013-02-20 14:07:00,29.7,13.8,29.61,NW,306,3.0,13.0,51,0.00,,,0.03,LWC V2.10 B1813,2013-02-20 19:07:00,
2013-02-20 14:12:00,29.8,14.3,29.61,SSW,210,2.0,9.0,52,0.00,,,0.03,LWC V2.10 B1813,2013-02-20 19:12:00,
2013-02-20 14:17:00,29.7,13.4,29.62,West,280,4.0,13.0,50,0.00,,,0.03,LWC V2.10 B1813,2013-02-20 19:17:00,
2013-02-20 14:22:00,29.7,13.8,29.62,WNW,298,4.0,8.0,51,0.00,,,0.03,LWC V2.10 B1813,2013-02-20 19:22:00,
2013-02-20 14:27:00,29.6,13.3,29.62,SW,231,3.0,8.0,50,0.00,,,0.03,LWC V2.10 B1813,2013-02-20 19:27:00,
2013-02-20 14:32:00,29.7,13.8,29.63,NW,309,2.0,3.0,51,0.00,,,0.03,LWC V2.10 B1813,2013-02-20 19:32:00,
2013-02-20 14:37:00,29.7,14.3,29.63,North,10,2.0,10.0,52,0.00,,,0.03,LWC V2.10 B1813,2013-02-20 19:37:00,
2013-02-20 14:42:00,29.5,14.1,29.62,NW,305,5.0,15.0,52,0.00,,,0.03,LWC V2.10 B1813,2013-02-20 19:42:00,
2013-02-20 14:47:00,29.1,13.7,29.62,NNW,336,8.0,15.0,52,0.00,,,0.03,LWC V2.10 B1813,2013-02-20 19:47:00,
2013-02-20 14:52:00,29.0,14.0,29.63,East,79,5.0,10.0,53,0.00,,,0.03,LWC V2.10 B1813,2013-02-20 19:52:00,
2013-02-20 14:57:00,29.0,14.0,29.63,WNW,287,11.0,13.0,53,0.00,,,0.03,LWC V2.10 B1813,2013-02-20 19:57:00,
2013-02-20 15:02:00,28.8,13.4,29.63,NNW,336,6.0,10.0,52,0.00,,,0.03,LWC V2.10 B1813,2013-02-20 20:02:00,
2013-02-20 15:07:00,28.8,13.9,29.64,NW,307,4.0,10.0,53,0.00,,,0.03,LWC V2.10 B1813,2013-02-20 20:07:00,
2013-02-20 15:12:00,29.0,14.0,29.64,NE,35,4.0,7.0,53,0.00,,,0.03,LWC V2.10 B1813,2013-02-20 20:12:00,
2013-02-20 15:17:00,29.3,14.3,29.64,North,350,8.0,10.0,53,0.00,,,0.03,LWC V2.10 B1813,2013-02-20 20:17:00,
2013-02-20 15:22:00,29.2,14.6,29.63,NNW,343,4.0,7.0,54,0.00,,,0.03,LWC V2.10 B1813,2013-02-20 20:22:00,
2013-02-20 15:27:00,28.9,14.8,29.64,WNW,294,10.0,12.0,55,0.00,,,0.03,LWC V2.10 B1813,2013-02-20 20:27:00,
2013-02-20 15:32:00,28.6,14.1,29.64,WNW,288,4.0,15.0,54,0.00,,,0.03,LWC V2.10 B1813,2013-02-20 20:32:00,
2013-02-20 15:37:00,28.5,14.0,29.64,NNW,332,9.0,21.0,54,0.00,,,0.03,LWC V2.10 B1813,2013-02-20 20:37:00,
2013-02-20 15:42:00,28.4,14.3,29.64,NNW,334,8.0,9.0,55,0.00,,,0.03,LWC V2.10 B1813,2013-02-20 20:42:00,
2013-02-20 15:47:00,28.4,14.3,29.64,ENE,76,3.0,18.0,55,0.00,,,0.03,LWC V2.10 B1813,2013-02-20 20:47:00,
2013-02-20 15:52:00,28.3,14.2,29.64,NNW,345,5.0,12.0,55,0.00,,,0.03,LWC V2.10 B1813,2013-02-20 20:52:00,
2013-02-20 15:57:00,28.1,14.0,29.65,WNW,291,11.0,12.0,55,0.00,,,0.03,LWC V2.10 B1813,2013-02-20 20:57:00,
2013-02-20 16:02:00,27.9,14.3,29.65,NW,305,6.0,14.0,56,0.00,,,0.03,LWC V2.10 B1813,2013-02-20 21:02:00,
2013-02-20 16:07:00,27.8,14.2,29.65,NNE,32,13.0,14.0,56,0.00,,,0.03,LWC V2.10 B1813,2013-02-20 21:07:00,
2013-02-20 16:12:00,27.8,14.6,29.65,West,268,2.0,5.0,57,0.00,,,0.03,LWC V2.10 B1813,2013-02-20 21:12:00,
2013-02-20 16:17:00,27.7,14.5,29.65,North,4,7.0,13.0,57,0.00,,,0.03,LWC V2.10 B1813,2013-02-20 21:17:00,
2013-02-20 16:22:00,27.7,14.5,29.65,WNW,300,6.0,8.0,57,0.00,,,0.03,LWC V2.10 B1813,2013-02-20 21:22:00,
2013-02-20 16:27:00,27.8,14.2,29.66,NW,304,4.0,7.0,56,0.00,,,0.03,LWC V2.10 B1813,2013-02-20 21:27:00,
2013-02-20 16:32:00,27.8,14.6,29.66,North,7,4.0,10.0,57,0.00,,,0.03,LWC V2.10 B1813,2013-02-20 21:32:00,
2013-02-20 16:37:00,27.7,14.5,29.66,SW,227,4.0,12.0,57,0.00,,,0.03,LWC V2.10 B1813,2013-02-20 21:37:00,
2013-02-20 16:42:00,27.6,14.4,29.66,NNW,339,2.0,12.0,57,0.00,,,0.03,LWC V2.10 B1813,2013-02-20 21:42:00,
2013-02-20 16:47:00,27.4,14.6,29.66,WSW,244,1.0,12.0,58,0.00,,,0.03,LWC V2.10 B1813,2013-02-20 21:47:00,
2013-02-20 16:52:00,27.2,14.4,29.66,North,349,4.0,16.0,58,0.00,,,0.03,LWC V2.10 B1813,2013-02-20 21:52:00,
2013-02-20 16:57:00,27.0,14.6,29.66,NNW,329,7.0,15.0,59,0.00,,,0.03,LWC V2.10 B1813,2013-02-20 21:57:00,
2013-02-20 17:07:00,26.7,14.7,29.66,West,268,0.0,11.0,60,0.00,,,0.03,LWC V2.10 B1813,2013-02-20 22:07:00,
2013-02-20 17:12:00,26.5,14.5,29.66,ENE,74,2.0,4.0,60,0.00,,,0.03,LWC V2.10 B1813,2013-02-20 22:12:00,
2013-02-20 17:17:00,26.3,14.3,29.66,WNW,300,10.0,17.0,60,0.00,,,0.03,LWC V2.10 B1813,2013-02-20 22:17:00,
2013-02-20 17:22:00,26.2,14.6,29.66,WNW,286,3.0,7.0,61,0.00,,,0.03,LWC V2.10 B1813,2013-02-20 22:22:00,
2013-02-20 17:27:00,26.1,14.9,29.67,WNW,291,10.0,10.0,62,0.00,,,0.03,LWC V2.10 B1813,2013-02-20 22:27:00,
2013-02-20 17:32:00,26.1,14.5,29.67,North,7,9.0,11.0,61,0.00,,,0.03,LWC V2.10 B1813,2013-02-20 22:32:00,
2013-02-20 17:37:00,25.9,14.3,29.67,NNE,19,9.0,9.0,61,0.00,,,0.03,LWC V2.10 B1813,2013-02-20 22:37:00,
2013-02-20 17:42:00,25.9,14.3,29.67,NW,322,4.0,5.0,61,0.00,,,0.03,LWC V2.10 B1813,2013-02-20 22:42:00,
2013-02-20 17:47:00,25.7,14.1,29.68,NW,320,1.0,5.0,61,0.00,,,0.03,LWC V2.10 B1813,2013-02-20 22:47:00,
2013-02-20 17:52:00,25.6,13.7,29.67,WNW,298,4.0,13.0,60,0.00,,,0.03,LWC V2.10 B1813,2013-02-20 22:52:00,
2013-02-20 17:57:00,25.6,14.0,29.68,NNE,14,0.0,6.0,61,0.00,,,0.03,LWC V2.10 B1813,2013-02-20 22:57:00,
2013-02-20 18:02:00,25.6,13.7,29.68,NNW,336,4.0,6.0,60,0.00,,,0.03,LWC V2.10 B1813,2013-02-20 23:02:00,
2013-02-20 18:07:00,25.5,13.9,29.68,WNW,282,6.0,7.0,61,0.00,,,0.03,LWC V2.10 B1813,2013-02-20 23:07:00,
2013-02-20 18:12:00,25.4,13.5,29.68,NW,314,5.0,5.0,60,0.00,,,0.03,LWC V2.10 B1813,2013-02-20 23:12:00,
2013-02-20 18:17:00,25.4,13.5,29.68,WNW,294,11.0,14.0,60,0.00,,,0.03,LWC V2.10 B1813,2013-02-20 23:17:00,
2013-02-20 18:22:00,25.4,13.9,29.69,NW,305,5.0,15.0,61,0.00,,,0.03,LWC V2.10 B1813,2013-02-20 23:22:00,
2013-02-20 18:27:00,25.4,13.9,29.69,NW,306,8.0,8.0,61,0.00,,,0.03,LWC V2.10 B1813,2013-02-20 23:27:00,
2013-02-20 18:32:00,25.3,13.8,29.69,West,259,3.0,9.0,61,0.00,,,0.03,LWC V2.10 B1813,2013-02-20 23:32:00,
2013-02-20 18:37:00,25.3,13.8,29.69,NW,320,7.0,16.0,61,0.00,,,0.03,LWC V2.10 B1813,2013-02-20 23:37:00,
2013-02-20 18:42:00,25.2,14.0,29.70,SW,215,6.0,11.0,62,0.00,,,0.03,LWC V2.10 B1813,2013-02-20 23:42:00,
2013-02-20 18:47:00,25.1,13.9,29.70,West,272,5.0,10.0,62,0.00,,,0.03,LWC V2.10 B1813,2013-02-20 23:47:00,
2013-02-20 18:57:00,25.1,14.3,29.70,NNW,343,1.0,8.0,63,0.00,,,0.03,LWC V2.10 B1813,2013-02-20 23:57:00,
2013-02-20 19:02:00,25.0,14.2,29.70,WNW,284,6.0,14.0,63,0.00,,,0.03,LWC V2.10 B1813,2013-02-21 00:02:00,
2013-02-20 19:07:00,24.9,14.1,29.70,NW,308,4.0,6.0,63,0.00,,,0.03,LWC V2.10 B1813,2013-02-21 00:07:00,
2013-02-20 19:12:00,24.9,14.1,29.70,NNW,341,7.0,7.0,63,0.00,,,0.03,LWC V2.10 B1813,2013-02-21 00:12:00,
2013-02-20 19:17:00,24.8,14.4,29.70,WNW,287,5.0,13.0,64,0.00,,,0.03,LWC V2.10 B1813,2013-02-21 00:17:00,
2013-02-20 19:22:00,24.6,14.2,29.70,SW,234,4.0,15.0,64,0.00,,,0.03,LWC V2.10 B1813,2013-02-21 00:22:00,
2013-02-20 19:27:00,24.7,14.3,29.70,SW,230,7.0,11.0,64,0.00,,,0.03,LWC V2.10 B1813,2013-02-21 00:27:00,
2013-02-20 19:32:00,24.6,14.2,29.70,WNW,294,6.0,8.0,64,0.00,,,0.03,LWC V2.10 B1813,2013-02-21 00:32:00,
2013-02-20 19:37:00,24.4,14.0,29.70,NW,321,4.0,6.0,64,0.00,,,0.03,LWC V2.10 B1813,2013-02-21 00:37:00,
2013-02-20 19:42:00,24.4,14.0,29.70,North,4,4.0,6.0,64,0.00,,,0.03,LWC V2.10 B1813,2013-02-21 00:42:00,
2013-02-20 19:47:00,24.4,14.0,29.70,WNW,282,6.0,12.0,64,0.00,,,0.03,LWC V2.10 B1813,2013-02-21 00:47:00,
2013-02-20 19:52:00,24.2,13.8,29.70,NNE,20,0.0,5.0,64,0.00,,,0.03,LWC V2.10 B1813,2013-02-21 00:52:00,
2013-02-20 19:57:00,24.2,13.8,29.70,NW,325,13.0,13.0,64,0.00,,,0.03,LWC V2.10 B1813,2013-02-21 00:57:00,
2013-02-20 20:02:00,24.1,14.1,29.70,WNW,286,9.0,11.0,65,0.00,,,0.03,LWC V2.10 B1813,2013-02-21 01:02:00,
2013-02-20 20:07:00,24.1,14.1,29.70,NNE,14,9.0,9.0,65,0.00,,,0.03,LWC V2.10 B1813,2013-02-21 01:07:00,
2013-02-20 20:12:00,24.0,14.0,29.70,WNW,284,12.0,12.0,65,0.00,,,0.03,LWC V2.10 B1813,2013-02-21 01:12:00,
2013-02-20 20:17:00,24.1,14.1,29.70,NW,308,9.0,17.0,65,0.00,,,0.03,LWC V2.10 B1813,2013-02-21 01:17:00,
2013-02-20 20:22:00,24.0,14.3,29.70,West,279,6.0,12.0,66,0.00,,,0.03,LWC V2.10 B1813,2013-02-21 01:22:00,
2013-02-20 20:27:00,24.0,14.3,29.71,WNW,284,6.0,7.0,66,0.00,,,0.03,LWC V2.10 B1813,2013-02-21 01:27:00,
2013-02-20 20:32:00,24.0,14.3,29.71,NW,314,4.0,11.0,66,0.00,,,0.03,LWC V2.10 B1813,2013-02-21 01:32:00,
2013-02-20 20:37:00,24.0,14.3,29.71,West,263,0.0,12.0,66,0.00,,,0.03,LWC V2.10 B1813,2013-02-21 01:37:00,
2013-02-20 20:42:00,23.9,14.6,29.71,NNE,17,3.0,10.0,67,0.00,,,0.03,LWC V2.10 B1813,2013-02-21 01:42:00,
2013-02-20 20:47:00,23.9,14.6,29.71,NNW,334,3.0,9.0,67,0.00,,,0.03,LWC V2.10 B1813,2013-02-21 01:47:00,
2013-02-20 20:52:00,23.9,14.6,29.72,North,358,3.0,8.0,67,0.00,,,0.03,LWC V2.10 B1813,2013-02-21 01:52:00,
2013-02-20 20:57:00,23.9,14.9,29.72,WNW,289,4.0,7.0,68,0.00,,,0.03,LWC V2.10 B1813,2013-02-21 01:57:00,
2013-02-20 21:02:00,24.0,14.7,29.72,NNW,327,5.0,6.0,67,0.00,,,0.03,LWC V2.10 B1813,2013-02-21 02:02:00,
2013-02-20 21:07:00,24.0,15.0,29.72,West,267,5.0,8.0,68,0.00,,,0.03,LWC V2.10 B1813,2013-02-21 02:07:00,
2013-02-20 21:12:00,24.1,14.8,29.73,West,273,10.0,12.0,67,0.00,,,0.03,LWC V2.10 B1813,2013-02-21 02:12:00,
2013-02-20 21:17:00,24.3,14.9,29.72,NNW,336,3.0,8.0,67,0.00,,,0.03,LWC V2.10 B1813,2013-02-21 02:17:00,
2013-02-20 21:22:00,24.3,14.9,29.72,NNW,327,6.0,8.0,67,0.00,,,0.03,LWC V2.10 B1813,2013-02-21 02:22:00,
2013-02-20 21:27:00,24.4,15.0,29.72,NNW,336,7.0,14.0,67,0.00,,,0.03,LWC V2.10 B1813,2013-02-21 02:27:00,
2013-02-20 21:32:00,24.5,15.1,29.73,WNW,283,4.0,7.0,67,0.00,,,0.03,LWC V2.10 B1813,2013-02-21 02:32:00,
2013-02-20 21:37:00,24.5,15.1,29.73,WNW,287,6.0,9.0,67,0.00,,,0.03,LWC V2.10 B1813,2013-02-21 02:37:00,
2013-02-20 21:42:00,24.6,15.2,29.73,WNW,283,11.0,12.0,67,0.00,,,0.03,LWC V2.10 B1813,2013-02-21 02:42:00,
2013-02-20 21:47:00,24.6,15.2,29.72,WNW,284,4.0,12.0,67,0.00,,,0.03,LWC V2.10 B1813,2013-02-21 02:47:00,
2013-02-20 21:52:00,24.5,15.1,29.72,NW,311,7.0,12.0,67,0.00,,,0.03,LWC V2.10 B1813,2013-02-21 02:52:00,
2013-02-20 21:57:00,24.4,15.4,29.72,North,355,4.0,8.0,68,0.00,,,0.03,LWC V2.10 B1813,2013-02-21 02:57:00,
2013-02-20 22:02:00,24.3,15.6,29.73,WNW,301,5.0,11.0,69,0.00,,,0.03,LWC V2.10 B1813,2013-02-21 03:02:00,
2013-02-20 22:07:00,24.3,15.6,29.73,NW,305,8.0,9.0,69,0.00,,,0.03,LWC V2.10 B1813,2013-02-21 03:07:00,
2013-02-20 22:12:00,24.2,15.9,29.73,North,353,2.0,6.0,70,0.00,,,0.03,LWC V2.10 B1813,2013-02-21 03:12:00,
2013-02-20 22:17:00,24.2,16.2,29.74,West,269,5.0,6.0,71,0.00,,,0.03,LWC V2.10 B1813,2013-02-21 03:17:00,
2013-02-20 22:22:00,24.1,16.1,29.74,NW,318,3.0,9.0,71,0.00,,,0.03,LWC V2.10 B1813,2013-02-21 03:22:00,
2013-02-20 22:27:00,24.1,16.4,29.74,North,351,2.0,3.0,72,0.00,,,0.03,LWC V2.10 B1813,2013-02-21 03:27:00,
2013-02-20 22:32:00,24.0,16.3,29.75,North,7,3.0,6.0,72,0.00,,,0.03,LWC V2.10 B1813,2013-02-21 03:32:00,
2013-02-20 22:37:00,24.0,16.3,29.75,NW,308,3.0,4.0,72,0.00,,,0.03,LWC V2.10 B1813,2013-02-21 03:37:00,
2013-02-20 22:42:00,24.2,16.2,29.75,West,266,8.0,11.0,71,0.00,,,0.03,LWC V2.10 B1813,2013-02-21 03:42:00,
2013-02-20 22:47:00,24.2,16.2,29.75,West,272,5.0,6.0,71,0.00,,,0.03,LWC V2.10 B1813,2013-02-21 03:47:00,
2013-02-20 22:52:00,24.3,15.9,29.75,NW,324,2.0,4.0,70,0.00,,,0.03,LWC V2.10 B1813,2013-02-21 03:52:00,
2013-02-20 22:57:00,24.4,15.7,29.75,West,265,8.0,10.0,69,0.00,,,0.03,LWC V2.10 B1813,2013-02-21 03:57:00,
2013-02-20 23:07:00,24.7,15.7,29.75,WSW,248,4.0,12.0,68,0.00,,,0.03,LWC V2.10 B1813,2013-02-21 04:07:00,
2013-02-20 23:12:00,24.6,15.9,29.74,NNE,28,4.0,7.0,69,0.00,,,0.03,LWC V2.10 B1813,2013-02-21 04:12:00,
2013-02-20 23:17:00,24.5,15.8,29.74,NW,304,2.0,3.0,69,0.00,,,0.03,LWC V2.10 B1813,2013-02-21 04:17:00,
2013-02-20 23:22:00,24.4,15.7,29.74,North,7,8.0,11.0,69,0.00,,,0.03,LWC V2.10 B1813,2013-02-21 04:22:00,
2013-02-20 23:27:00,24.4,15.7,29.74,WNW,291,3.0,10.0,69,0.00,,,0.03,LWC V2.10 B1813,2013-02-21 04:27:00,
2013-02-20 23:32:00,24.4,15.7,29.74,NW,322,6.0,11.0,69,0.00,,,0.03,LWC V2.10 B1813,2013-02-21 04:32:00,
2013-02-20 23:37:00,24.4,15.7,29.74,NNW,337,2.0,4.0,69,0.00,,,0.03,LWC V2.10 B1813,2013-02-21 04:37:00,
2013-02-20 23:42:00,24.4,15.7,29.74,NNW,348,3.0,10.0,69,0.00,,,0.03,LWC V2.10 B1813,2013-02-21 04:42:00,
2013-02-20 23:47:00,24.4,15.4,29.74,North,353,4.0,14.0,68,0.00,,,0.03,LWC V2.10 B1813,2013-02-21 04:47:00,
2013-02-20 23:52:00,24.5,15.5,29.74,NW,313,1.0,8.0,68,0.00,,,0.03,LWC V2.10 B1813,2013-02-21 04:52:00,
2013-02-20 23:57:00,24.5,15.1,29.75,NW,305,5.0,7.0,67,0.00,,,0.03,LWC V2.10 B1813,2013-02-21 04:57:00,